Time;durP1;ratioP1;P1;durP2;ratioP2;P2;SDS_P1;SDS_P2;PMS_P1;PMS_P2;Temp;Humidity;BMP_temperature;BMP_pressure;BME280_temperature;BME280_humidity;BME280_pressure;Samples;Min_cycle;Max_cycle;Signal;HPM_P1;HPM_P2
2021/12/28 00:00:33;;;;;;;25.67;17.03;;;8.10;82.20;8.40;95205.00;;;;5054627;28;20224;-87
2021/12/28 00:03:01;;;;;;;27.83;17.30;;;8.10;82.40;8.40;95203.00;;;;5054344;28;20203;-86
2021/12/28 00:05:29;;;;;;;26.47;16.90;;;8.10;82.60;8.40;95206.00;;;;5054356;28;20220;-87
2021/12/28 00:07:56;;;;;;;26.30;15.90;;;8.10;82.60;8.50;95210.00;;;;5053982;28;20256;-87
2021/12/28 00:10:23;;;;;;;27.00;16.63;;;8.20;82.80;8.50;95205.00;;;;5053965;28;20217;-86
2021/12/28 00:12:51;;;;;;;26.97;16.47;;;8.10;82.70;8.50;95201.00;;;;5050212;28;20663;-86
2021/12/28 00:15:33;;;;;;;25.43;15.40;;;8.20;82.90;8.50;95202.00;;;;5039326;28;20212;-86
2021/12/28 00:18:03;;;;;;;28.03;17.43;;;8.20;82.80;8.50;95186.00;;;;5058439;28;20246;-86
2021/12/28 00:20:35;;;;;;;25.07;15.30;;;8.20;82.80;8.50;95187.00;;;;5073922;28;20250;-86
2021/12/28 00:23:06;;;;;;;26.30;16.03;;;8.20;82.80;8.50;95189.00;;;;5055852;28;20199;-85
2021/12/28 00:25:34;;;;;;;28.70;16.30;;;8.20;82.80;8.50;95193.00;;;;5053819;28;20181;-86
2021/12/28 00:28:01;;;;;;;28.23;16.63;;;8.30;82.80;8.50;95196.00;;;;5053311;28;20220;-86
2021/12/28 00:30:29;;;;;;;25.53;14.90;;;8.30;82.70;8.60;95183.00;;;;5053558;28;20694;-86
2021/12/28 00:32:57;;;;;;;25.00;14.97;;;8.20;82.60;8.60;95184.00;;;;5053658;28;20192;-86
2021/12/28 00:35:27;;;;;;;24.97;15.50;;;8.30;82.60;8.60;95184.00;;;;5053594;28;20206;-86
2021/12/28 00:37:56;;;;;;;27.97;16.80;;;8.30;82.60;8.60;95187.00;;;;5053354;28;20677;-86
2021/12/28 00:40:24;;;;;;;24.17;14.33;;;8.30;82.60;8.60;95187.00;;;;5053596;28;20227;-86
2021/12/28 00:42:51;;;;;;;24.50;14.80;;;8.30;82.60;8.60;95193.00;;;;5053829;28;20573;-86
2021/12/28 00:45:19;;;;;;;23.60;14.90;;;8.30;82.60;8.60;95181.00;;;;5051995;28;20232;-86
2021/12/28 00:47:47;;;;;;;27.40;15.27;;;8.30;83.30;8.60;95186.00;;;;5052577;28;20223;-87
2021/12/28 00:50:17;;;;;;;24.90;14.77;;;8.30;82.60;8.60;95185.00;;;;5052835;28;20220;-87
2021/12/28 00:52:46;;;;;;;23.20;14.23;;;8.30;82.60;8.60;95185.00;;;;5052248;28;20189;-86
2021/12/28 00:55:17;;;;;;;22.07;14.40;;;8.30;82.50;8.60;95187.00;;;;5052019;28;20217;-86
2021/12/28 00:57:44;;;;;;;24.43;14.57;;;8.30;82.50;8.60;95181.00;;;;5052557;28;20598;-87
2021/12/28 01:00:17;;;;;;;22.83;13.43;;;8.30;82.40;8.60;95192.00;;;;5052898;28;20232;-87
2021/12/28 01:02:44;;;;;;;22.97;14.77;;;8.30;82.40;8.60;95190.00;;;;5052608;28;20732;-86
2021/12/28 01:05:12;;;;;;;24.60;13.83;;;8.30;82.40;8.60;95190.00;;;;5052393;28;20193;-86
2021/12/28 01:07:40;;;;;;;21.23;12.80;;;8.30;82.50;8.60;95185.00;;;;5052331;28;20220;-87
2021/12/28 01:10:15;;;;;;;21.63;13.73;;;8.30;82.50;8.60;95188.00;;;;5052337;28;20220;-86
2021/12/28 01:12:43;;;;;;;31.27;14.00;;;8.30;82.50;8.70;95186.00;;;;5053445;28;20196;-87
2021/12/28 01:15:14;;;;;;;25.37;13.70;;;8.40;83.20;8.70;95184.00;;;;5052795;28;20287;-86
2021/12/28 01:17:41;;;;;;;21.90;13.43;;;8.40;82.50;8.70;95182.00;;;;5052252;28;20674;-87
2021/12/28 01:20:11;;;;;;;21.30;13.13;;;8.40;82.30;8.60;95180.00;;;;5052017;28;20592;-86
2021/12/28 01:22:39;;;;;;;23.77;12.73;;;8.40;82.10;8.60;95179.00;;;;5051928;28;20197;-86
2021/12/28 01:25:09;;;;;;;24.97;13.70;;;8.40;82.00;8.60;95176.00;;;;5052446;28;20288;-87
2021/12/28 01:27:37;;;;;;;22.30;12.87;;;8.30;81.70;8.60;95177.00;;;;5052112;28;20221;-86
2021/12/28 01:30:11;;;;;;;18.90;12.33;;;9.30;82.30;8.50;95180.00;;;;5051917;28;20670;-86
2021/12/28 01:32:39;;;;;;;21.00;13.13;;;8.30;81.60;8.50;95177.00;;;;5051647;28;20200;-87
2021/12/28 01:35:10;;;;;;;22.60;12.40;;;8.30;81.70;8.50;95182.00;;;;5047380;28;20570;-86
2021/12/28 01:37:38;;;;;;;23.27;12.37;;;8.30;81.60;8.50;95172.00;;;;5050115;28;20204;-86
2021/12/28 01:40:09;;;;;;;21.53;12.40;;;8.20;81.40;8.40;95175.00;;;;5051845;28;20213;-86
2021/12/28 01:42:56;;;;;;;19.43;12.23;;;8.20;81.30;8.40;95183.00;;;;5051399;28;20228;-87
2021/12/28 01:45:36;;;;;;;28.50;12.23;;;8.20;81.20;8.30;95176.00;;;;5051670;28;20193;-86
2021/12/28 01:48:04;;;;;;;25.20;12.17;;;8.20;81.20;8.30;95176.00;;;;5050666;28;20220;-86
2021/12/28 01:50:32;;;;;;;19.47;11.67;;;8.10;81.20;8.20;95171.00;;;;5053853;28;20224;-86
2021/12/28 01:52:59;;;;;;;18.47;11.03;;;8.10;81.30;8.20;95175.00;;;;5056220;28;20205;-86
2021/12/28 01:55:26;;;;;;;32.33;12.53;;;8.00;81.10;8.20;95173.00;;;;5051487;28;20216;-86
2021/12/28 01:57:53;;;;;;;20.90;11.53;;;8.00;81.20;8.10;95167.00;;;;5051927;28;20201;-86
2021/12/28 02:00:20;;;;;;;17.83;11.93;;;8.00;81.30;8.10;95164.00;;;;5051799;28;20225;-86
2021/12/28 02:02:49;;;;;;;18.73;12.33;;;7.90;81.20;8.10;95158.00;;;;5052088;28;20195;-85
2021/12/28 02:05:16;;;;;;;19.33;12.03;;;8.00;81.20;8.10;95154.00;;;;5051891;28;20196;-85
2021/12/28 02:07:43;;;;;;;19.90;11.10;;;7.90;81.00;8.00;95154.00;;;;5051489;28;20228;-86
2021/12/28 02:10:11;;;;;;;23.53;10.93;;;7.90;81.00;8.00;95151.00;;;;5048370;28;20275;-86
2021/12/28 02:12:38;;;;;;;20.67;10.93;;;7.80;80.90;8.00;95146.00;;;;5055192;28;20207;-86
2021/12/28 02:15:12;;;;;;;18.53;12.07;;;7.80;80.90;7.90;95142.00;;;;5055081;28;20196;-86
2021/12/28 02:17:40;;;;;;;19.40;11.67;;;7.80;80.80;7.90;95142.00;;;;5055647;28;20228;-86
2021/12/28 02:20:12;;;;;;;20.20;11.30;;;7.70;80.70;7.80;95148.00;;;;5054543;28;20223;-86
2021/12/28 02:22:40;;;;;;;22.83;11.30;;;7.70;80.60;7.80;95133.00;;;;5047819;28;20193;-86
2021/12/28 02:25:09;;;;;;;21.47;11.70;;;7.60;80.60;7.80;95134.00;;;;5054711;28;20565;-86
2021/12/28 02:27:36;;;;;;;19.17;12.13;;;7.60;80.60;7.70;95120.00;;;;5055018;28;20220;-87
2021/12/28 02:30:06;;;;;;;20.80;12.03;;;7.50;80.50;7.70;95123.00;;;;5053604;28;20217;-86
2021/12/28 02:32:33;;;;;;;22.20;11.90;;;7.60;80.60;7.70;95122.00;;;;5055645;28;20225;-86
2021/12/28 02:35:00;;;;;;;20.23;11.70;;;7.50;80.50;7.60;95114.00;;;;5054775;28;20658;-86
2021/12/28 02:37:29;;;;;;;28.43;11.90;;;7.50;80.50;7.60;95114.00;;;;5054878;28;20209;-86
2021/12/28 02:39:56;;;;;;;20.80;11.80;;;7.40;80.40;7.50;95114.00;;;;5055097;28;20212;-86
2021/12/28 02:42:25;;;;;;;34.67;11.33;;;7.40;80.40;7.50;95118.00;;;;5054937;28;20673;-85
2021/12/28 02:45:02;;;;;;;59.47;11.97;;;7.30;80.50;7.40;95114.00;;;;5052761;28;20195;-86
2021/12/28 02:47:32;;;;;;;40.73;11.40;;;7.40;80.70;7.40;95123.00;;;;5055193;28;20491;-86
2021/12/28 02:49:59;;;;;;;27.90;10.77;;;7.30;80.70;7.40;95120.00;;;;5052944;28;20220;-86
2021/12/28 02:52:27;;;;;;;44.60;10.90;;;7.30;80.80;7.40;95121.00;;;;5054520;28;20199;-85
2021/12/28 02:54:54;;;;;;;17.93;9.03;;;7.30;81.00;7.40;95117.00;;;;5054713;28;20196;-86
2021/12/28 02:57:21;;;;;;;26.17;9.03;;;7.20;81.10;7.40;95090.00;;;;5055067;28;20205;-86
2021/12/28 02:59:50;;;;;;;18.83;9.23;;;7.20;81.10;7.40;95088.00;;;;5055019;28;20228;-86
2021/12/28 03:02:18;;;;;;;25.40;10.07;;;7.20;81.20;7.30;95085.00;;;;5054206;28;20197;-85
2021/12/28 03:04:47;;;;;;;17.93;8.57;;;7.20;81.10;7.30;95095.00;;;;5054920;28;20269;-85
2021/12/28 03:07:15;;;;;;;21.77;8.67;;;7.20;81.10;7.30;95098.00;;;;5054915;28;20199;-86
2021/12/28 03:09:43;;;;;;;21.30;9.33;;;7.20;81.10;7.30;95086.00;;;;5054585;28;20736;-87
2021/12/28 03:12:11;;;;;;;23.90;8.50;;;7.10;81.10;7.20;95082.00;;;;5054542;28;20204;-86
2021/12/28 03:14:38;;;;;;;16.97;9.00;;;7.10;81.10;7.20;95081.00;;;;5053666;28;20228;-86
2021/12/28 03:17:06;;;;;;;18.20;8.80;;;7.10;81.10;7.20;95068.00;;;;5054572;28;20642;-86
2021/12/28 03:19:35;;;;;;;20.63;9.13;;;7.10;81.10;7.20;95071.00;;;;5054629;28;20234;-86
2021/12/28 03:22:03;;;;;;;21.10;7.87;;;7.10;81.20;7.20;95062.00;;;;5054015;28;20203;-87
2021/12/28 03:24:30;;;;;;;21.00;8.30;;;7.00;81.10;7.10;95056.00;;;;5053361;28;20423;-86
2021/12/28 03:26:59;;;;;;;14.60;8.07;;;7.00;81.10;7.10;95055.00;;;;5054152;28;20669;-86
2021/12/28 03:29:26;;;;;;;11.13;7.63;;;7.00;80.90;7.10;95036.00;;;;5053917;28;20713;-86
2021/12/28 03:31:53;;;;;;;14.20;8.47;;;7.00;80.90;7.10;95041.00;;;;5054003;28;20197;-86
2021/12/28 03:34:20;;;;;;;15.67;8.27;;;6.90;80.80;7.00;95051.00;;;;5054183;28;20197;-86
2021/12/28 03:36:47;;;;;;;10.67;7.83;;;6.90;80.80;7.00;95036.00;;;;5053988;28;20201;-86
2021/12/28 03:39:15;;;;;;;10.33;7.93;;;6.90;80.80;7.00;95033.00;;;;5053973;28;20204;-86
2021/12/28 03:41:42;;;;;;;14.57;8.43;;;6.90;80.70;6.90;95039.00;;;;5053597;28;20192;-85
2021/12/28 03:44:12;;;;;;;10.07;7.60;;;6.80;80.70;6.90;95034.00;;;;5054515;28;20203;-86
2021/12/28 03:46:39;;;;;;;11.07;8.07;;;6.80;80.80;6.90;95026.00;;;;5054044;28;20184;-86
2021/12/28 03:49:06;;;;;;;9.53;7.07;;;6.80;80.80;6.90;95045.00;;;;5053282;28;20218;-87
2021/12/28 03:51:33;;;;;;;11.03;8.20;;;6.80;80.80;6.90;95044.00;;;;5053238;28;20185;-86
2021/12/28 03:54:00;;;;;;;10.00;8.07;;;6.70;80.80;6.80;95041.00;;;;5054036;28;20188;-86
2021/12/28 03:56:28;;;;;;;10.57;8.43;;;6.70;80.90;6.80;95050.00;;;;5053603;28;20197;-86
2021/12/28 03:58:56;;;;;;;10.50;7.60;;;6.70;81.10;6.80;95037.00;;;;5053894;28;20200;-85
2021/12/28 04:01:27;;;;;;;11.97;8.07;;;6.70;81.10;6.70;95036.00;;;;5053446;28;20602;-86
2021/12/28 04:03:54;;;;;;;12.37;7.00;;;6.70;80.90;6.70;95039.00;;;;5042033;28;20201;-86
2021/12/28 04:06:22;;;;;;;10.40;7.30;;;6.70;80.70;6.70;95039.00;;;;5053117;28;20192;-85
2021/12/28 04:08:51;;;;;;;12.50;6.93;;;6.60;80.50;6.70;95023.00;;;;5053478;28;20226;-85
2021/12/28 04:11:26;;;;;;;15.47;7.63;;;6.60;80.60;6.60;95018.00;;;;5053243;28;20212;-88
2021/12/28 04:13:58;;;;;;;8.43;6.87;;;6.60;80.50;6.60;95038.00;;;;5053983;28;20250;-86
2021/12/28 04:16:28;;;;;;;9.20;7.67;;;6.60;80.60;6.60;95022.00;;;;5053289;28;20199;-85
2021/12/28 04:18:55;;;;;;;10.83;6.80;;;6.50;80.50;6.50;95031.00;;;;5053843;28;20212;-86
2021/12/28 04:21:24;;;;;;;9.67;7.40;;;6.50;80.60;6.50;95018.00;;;;5047978;28;20593;-86
2021/12/28 04:23:51;;;;;;;10.17;7.23;;;6.50;80.50;6.50;95016.00;;;;5043883;28;20283;-85
2021/12/28 04:26:20;;;;;;;9.53;7.07;;;6.40;80.60;6.50;95030.00;;;;5051995;28;20200;-86
2021/12/28 04:28:47;;;;;;;10.23;6.77;;;6.50;80.60;6.50;95013.00;;;;5053579;28;20216;-86
2021/12/28 04:31:15;;;;;;;11.37;7.17;;;6.40;80.60;6.40;95006.00;;;;5053685;28;20291;-86
2021/12/28 04:33:45;;;;;;;11.23;6.50;;;6.40;80.70;6.40;95008.00;;;;5052931;28;20371;-85
2021/12/28 04:36:16;;;;;;;9.33;6.83;;;6.40;80.70;6.40;95002.00;;;;5051570;28;20196;-86
2021/12/28 04:38:45;;;;;;;9.23;6.73;;;6.40;80.60;6.40;95005.00;;;;5053037;28;20279;-86
2021/12/28 04:41:13;;;;;;;12.30;7.53;;;6.30;80.50;6.40;95001.00;;;;5053222;28;20231;-85
2021/12/28 04:43:41;;;;;;;10.33;6.70;;;6.30;80.40;6.40;94996.00;;;;5053732;28;20685;-86
2021/12/28 04:46:08;;;;;;;12.43;6.90;;;6.30;80.40;6.30;95005.00;;;;5052698;28;20288;-86
2021/12/28 04:48:36;;;;;;;11.50;7.43;;;6.30;80.30;6.30;94991.00;;;;5052096;28;20590;-86
2021/12/28 04:51:06;;;;;;;11.70;6.87;;;6.20;80.20;6.30;94990.00;;;;5052682;28;20303;-87
2021/12/28 04:53:34;;;;;;;13.63;7.13;;;6.20;80.40;6.30;94984.00;;;;5052749;28;20224;-87
2021/12/28 04:56:02;;;;;;;8.80;6.93;;;6.20;80.50;6.30;94977.00;;;;5052427;28;20196;-86
2021/12/28 04:58:29;;;;;;;9.07;6.53;;;6.20;80.50;6.20;94980.00;;;;5052087;28;20203;-86
2021/12/28 05:00:56;;;;;;;10.07;6.47;;;6.20;80.50;6.20;94981.00;;;;5050762;28;20232;-86
2021/12/28 05:03:24;;;;;;;8.23;6.13;;;6.10;80.50;6.20;94972.00;;;;5052234;28;20201;-86
2021/12/28 05:05:52;;;;;;;8.20;6.17;;;6.10;80.40;6.20;94978.00;;;;5052527;28;20204;-86
2021/12/28 05:08:22;;;;;;;8.43;6.27;;;6.10;80.40;6.20;94983.00;;;;5052412;28;20224;-86
2021/12/28 05:10:54;;;;;;;7.47;6.40;;;6.10;80.40;6.20;94983.00;;;;5052162;28;20598;-88
2021/12/28 05:13:22;;;;;;;8.70;6.80;;;6.10;80.40;6.20;94988.00;;;;5052421;28;20201;-85
2021/12/28 05:15:52;;;;;;;7.37;6.10;;;6.10;80.40;6.20;94981.00;;;;5052240;28;20192;-86
2021/12/28 05:18:19;;;;;;;8.83;6.97;;;6.10;80.50;6.20;94983.00;;;;5052017;28;20207;-85
2021/12/28 05:20:47;;;;;;;7.77;6.40;;;6.10;80.70;6.10;94979.00;;;;5052019;28;20216;-86
2021/12/28 05:23:15;;;;;;;7.53;6.23;;;6.10;80.80;6.10;94987.00;;;;5052110;28;20197;-86
2021/12/28 05:25:44;;;;;;;8.70;6.60;;;6.10;80.80;6.10;94974.00;;;;5051943;28;20676;-87
2021/12/28 05:28:11;;;;;;;11.93;7.40;;;6.10;80.80;6.10;94974.00;;;;5052367;28;20196;-86
2021/12/28 05:30:39;;;;;;;9.07;6.37;;;6.00;80.80;6.10;94973.00;;;;5052588;28;20288;-87
2021/12/28 05:33:06;;;;;;;12.17;6.33;;;6.00;80.80;6.10;94977.00;;;;5052534;28;20205;-86
2021/12/28 05:35:34;;;;;;;8.77;6.00;;;6.00;80.70;6.10;94972.00;;;;5052896;28;20207;-86
2021/12/28 05:38:01;;;;;;;6.80;5.20;;;6.00;81.00;6.10;94970.00;;;;5052632;28;20200;-86
2021/12/28 05:40:29;;;;;;;8.77;6.23;;;6.00;80.70;6.10;94969.00;;;;5051960;28;20220;-86
2021/12/28 05:42:57;;;;;;;6.83;6.07;;;6.00;80.70;6.10;94951.00;;;;5051757;28;20673;-86
2021/12/28 05:45:24;;;;;;;6.93;6.03;;;6.00;80.70;6.10;94950.00;;;;5051960;28;20207;-87
2021/12/28 05:47:51;;;;;;;7.70;5.83;;;6.00;80.80;6.10;94935.00;;;;5051136;28;20673;-86
2021/12/28 05:50:19;;;;;;;8.40;5.63;;;6.00;80.80;6.10;94925.00;;;;5051762;28;20224;-86
2021/12/28 05:52:46;;;;;;;8.33;6.17;;;6.00;80.90;6.10;94929.00;;;;5051684;28;20193;-86
2021/12/28 05:55:13;;;;;;;7.43;5.33;;;6.00;81.00;6.10;94927.00;;;;5051835;28;20239;-86
2021/12/28 05:57:40;;;;;;;10.30;5.73;;;6.00;81.00;6.10;94932.00;;;;5051710;28;20229;-86
2021/12/28 06:00:13;;;;;;;8.33;5.27;;;5.80;80.90;6.10;94936.00;;;;5051637;28;20232;-86
2021/12/28 06:02:40;;;;;;;7.23;4.90;;;6.00;81.10;6.10;94936.00;;;;5051622;28;20207;-86
2021/12/28 06:05:08;;;;;;;6.53;5.10;;;6.00;81.10;6.10;94934.00;;;;5051750;28;20680;-86
2021/12/28 06:07:35;;;;;;;5.80;5.20;;;6.00;81.10;6.10;94931.00;;;;5051536;28;20201;-86
2021/12/28 06:10:05;;;;;;;6.60;5.40;;;6.00;81.00;6.10;94933.00;;;;5058879;28;20295;-86
2021/12/28 06:12:32;;;;;;;5.77;5.27;;;6.00;81.10;6.10;94931.00;;;;5052458;28;20533;-86
2021/12/28 06:14:59;;;;;;;6.13;5.20;;;6.10;81.20;6.10;94936.00;;;;5071622;28;20707;-86
2021/12/28 06:17:27;;;;;;;7.27;5.57;;;6.00;81.30;6.20;94939.00;;;;5058224;28;20200;-86
2021/12/28 06:19:54;;;;;;;5.77;5.03;;;6.00;81.40;6.20;94937.00;;;;5051653;28;20216;-86
2021/12/28 06:22:22;;;;;;;5.10;4.67;;;6.10;81.60;6.30;94942.00;;;;5051550;28;20192;-86
2021/12/28 06:24:50;;;;;;;6.27;5.13;;;6.10;81.70;6.30;94942.00;;;;5051530;28;20284;-86
2021/12/28 06:27:18;;;;;;;8.33;5.00;;;6.10;81.90;6.40;94954.00;;;;5050511;28;20208;-87
2021/12/28 06:29:45;;;;;;;8.40;6.03;;;6.20;82.10;6.40;94962.00;;;;5051333;28;20694;-86
2021/12/28 06:32:14;;;;;;;6.33;5.60;;;6.20;82.20;6.40;94966.00;;;;5051199;28;20193;-86
2021/12/28 06:34:43;;;;;;;7.57;5.57;;;6.30;82.40;6.50;94972.00;;;;5051723;28;20196;-85
2021/12/28 06:37:10;;;;;;;5.40;4.90;;;6.30;82.40;6.50;94971.00;;;;5051417;28;20216;-85
2021/12/28 06:39:38;;;;;;;7.13;5.20;;;6.30;82.40;6.60;94960.00;;;;5051441;28;20616;-86
2021/12/28 06:42:06;;;;;;;8.57;5.47;;;6.40;82.50;6.60;94965.00;;;;5058604;28;20195;-86
2021/12/28 06:44:33;;;;;;;7.60;5.03;;;6.40;82.30;6.70;94988.00;;;;5071720;28;20204;-85
2021/12/28 06:47:00;;;;;;;5.63;5.10;;;6.50;82.30;6.70;94982.00;;;;5054341;28;20201;-86
2021/12/28 06:49:27;;;;;;;8.43;5.53;;;6.50;82.20;6.70;94967.00;;;;5051017;28;20225;-85
2021/12/28 06:51:56;;;;;;;11.93;5.90;;;6.70;82.30;6.80;94974.00;;;;5051241;28;20661;-86
2021/12/28 06:54:23;;;;;;;6.40;5.73;;;6.60;82.30;6.80;94977.00;;;;5051450;28;20205;-85
2021/12/28 06:56:50;;;;;;;6.57;5.20;;;6.60;82.30;6.90;94957.00;;;;5050954;28;20189;-86
2021/12/28 06:59:17;;;;;;;5.73;5.23;;;6.60;82.30;6.90;94972.00;;;;5054222;28;20197;-86
2021/12/28 07:01:44;;;;;;;6.20;5.53;;;6.70;82.30;7.00;94969.00;;;;5054730;28;20220;-87
2021/12/28 07:04:11;;;;;;;8.17;6.03;;;6.70;82.40;7.00;94970.00;;;;5054395;28;20642;-85
2021/12/28 07:06:38;;;;;;;5.80;5.20;;;6.80;82.40;7.00;94965.00;;;;5054547;28;20199;-86
2021/12/28 07:09:07;;;;;;;6.07;5.47;;;6.80;82.30;7.10;94967.00;;;;5054240;28;20219;-86
2021/12/28 07:11:34;;;;;;;6.80;5.40;;;6.80;82.30;7.10;94973.00;;;;5060016;28;20197;-86
2021/12/28 07:14:01;;;;;;;7.83;5.70;;;6.90;82.40;7.20;94967.00;;;;5052809;28;20280;-86
2021/12/28 07:16:28;;;;;;;8.97;5.77;;;7.50;82.70;7.20;94957.00;;;;5054245;28;20203;-85
2021/12/28 07:18:55;;;;;;;6.77;5.83;;;7.00;82.20;7.20;94940.00;;;;5053939;28;20666;-86
2021/12/28 07:21:22;;;;;;;10.23;6.07;;;7.00;82.10;7.20;94955.00;;;;5053718;28;20579;-85
2021/12/28 07:23:49;;;;;;;7.10;5.73;;;7.00;82.10;7.30;94956.00;;;;5053473;28;20195;-86
2021/12/28 07:26:17;;;;;;;6.37;5.73;;;7.10;82.20;7.30;94947.00;;;;5053050;28;20199;-85
2021/12/28 07:28:44;;;;;;;10.17;6.43;;;7.10;82.10;7.30;94933.00;;;;5052083;28;20211;-86
2021/12/28 07:31:11;;;;;;;6.67;5.97;;;7.10;81.90;7.40;94910.00;;;;5054052;28;20212;-86
2021/12/28 07:33:38;;;;;;;7.93;5.90;;;7.10;81.80;7.40;94913.00;;;;5048215;28;20205;-84
2021/12/28 07:36:06;;;;;;;9.07;6.10;;;7.10;81.70;7.40;94924.00;;;;5034187;28;20662;-86
2021/12/28 07:38:33;;;;;;;6.17;5.63;;;7.20;81.80;7.40;94929.00;;;;5052783;28;20654;-84
2021/12/28 07:41:00;;;;;;;8.00;6.03;;;7.40;81.80;7.50;94932.00;;;;5054157;28;20590;-86
2021/12/28 07:43:28;;;;;;;6.53;5.93;;;7.20;81.90;7.50;94971.00;;;;5054962;28;20655;-87
2021/12/28 07:45:55;;;;;;;9.93;6.13;;;7.20;81.90;7.50;94962.00;;;;5054107;28;20188;-87
2021/12/28 07:48:23;;;;;;;8.07;5.97;;;7.30;81.70;7.50;94970.00;;;;5053433;28;20208;-85
2021/12/28 07:50:50;;;;;;;6.30;5.70;;;7.30;81.60;7.50;94981.00;;;;5053366;28;20213;-86
2021/12/28 07:53:17;;;;;;;8.57;5.73;;;7.30;81.80;7.60;94980.00;;;;5053861;28;20197;-85
2021/12/28 07:55:44;;;;;;;6.57;5.97;;;7.30;81.80;7.60;94975.00;;;;5053794;28;20197;-85
2021/12/28 07:58:11;;;;;;;7.37;6.67;;;7.40;81.80;7.60;94976.00;;;;5053677;28;20203;-85
2021/12/28 08:00:40;;;;;;;7.77;5.87;;;7.40;81.90;7.60;94985.00;;;;5053842;28;20228;-86
2021/12/28 08:03:07;;;;;;;6.57;5.90;;;7.40;81.70;7.60;94991.00;;;;5053806;28;20196;-87
2021/12/28 08:05:36;;;;;;;8.47;5.70;;;7.40;81.70;7.60;94980.00;;;;5053042;28;20193;-85
2021/12/28 08:08:04;;;;;;;6.83;6.13;;;7.40;81.80;7.70;94978.00;;;;5052512;28;20680;-85
2021/12/28 08:10:32;;;;;;;6.70;5.73;;;7.40;81.70;7.70;94990.00;;;;5052195;28;20235;-86
2021/12/28 08:12:59;;;;;;;7.00;6.30;;;7.50;81.70;7.70;94994.00;;;;5051217;28;20196;-86
2021/12/28 08:15:27;;;;;;;8.80;6.73;;;7.50;82.40;7.80;94995.00;;;;5053243;28;20201;-86
2021/12/28 08:17:56;;;;;;;9.30;6.60;;;7.50;81.70;7.80;94982.00;;;;5053388;28;20580;-86
2021/12/28 08:20:23;;;;;;;7.30;6.23;;;7.50;81.60;7.80;95004.00;;;;5052939;28;20220;-86
2021/12/28 08:22:50;;;;;;;7.00;6.23;;;7.50;81.60;7.80;95003.00;;;;5053194;28;20196;-87
2021/12/28 08:25:20;;;;;;;7.00;6.30;;;7.50;81.60;7.80;94999.00;;;;5052690;28;20195;-87
2021/12/28 08:27:48;;;;;;;8.23;6.80;;;7.50;81.60;7.80;94994.00;;;;5053118;28;20204;-87
2021/12/28 08:30:18;;;;;;;9.97;6.17;;;7.50;81.70;7.80;94998.00;;;;5052484;28;20312;-86
2021/12/28 08:32:46;;;;;;;7.50;6.70;;;7.50;81.90;7.80;95010.00;;;;5052599;28;20201;-86
2021/12/28 08:35:16;;;;;;;6.30;5.70;;;7.50;82.00;7.80;94999.00;;;;5052737;28;20570;-86
2021/12/28 08:37:44;;;;;;;6.60;5.57;;;7.60;82.20;7.80;95016.00;;;;5052989;28;20553;-86
2021/12/28 08:40:15;;;;;;;8.83;5.93;;;7.50;82.10;7.80;95025.00;;;;5052023;28;20216;-85
2021/12/28 08:42:42;;;;;;;16.37;6.63;;;7.60;82.20;7.80;95021.00;;;;5052606;28;20200;-86
2021/12/28 08:45:10;;;;;;;7.07;6.40;;;7.60;82.30;7.90;95031.00;;;;5053011;28;20209;-85
2021/12/28 08:47:38;;;;;;;6.90;6.20;;;7.60;82.40;7.90;95065.00;;;;5053691;28;20196;-86
2021/12/28 08:50:09;;;;;;;6.83;6.17;;;7.60;82.50;7.90;95046.00;;;;5053095;28;20685;-87
2021/12/28 08:52:39;;;;;;;8.97;6.47;;;7.60;82.60;8.00;95055.00;;;;5052720;28;20588;-86
2021/12/28 08:55:08;;;;;;;10.47;6.63;;;7.60;82.50;8.00;95067.00;;;;5052296;28;20669;-85
2021/12/28 08:57:35;;;;;;;7.53;6.43;;;7.70;82.50;8.00;95063.00;;;;5051858;28;20201;-86
2021/12/28 09:00:02;;;;;;;7.27;6.33;;;7.70;82.50;8.00;95061.00;;;;5051911;28;20231;-87
2021/12/28 09:02:29;;;;;;;8.70;6.23;;;7.70;82.70;8.10;95048.00;;;;5052663;28;20190;-87
2021/12/28 09:04:56;;;;;;;7.10;6.33;;;7.70;82.50;8.10;95039.00;;;;5052621;28;20231;-85
2021/12/28 09:07:24;;;;;;;11.63;6.57;;;7.80;82.50;8.10;95041.00;;;;5052587;28;20669;-85
2021/12/28 09:09:52;;;;;;;8.40;6.17;;;7.80;82.50;8.10;95056.00;;;;5051818;28;20232;-86
2021/12/28 09:12:19;;;;;;;7.77;6.03;;;7.80;82.40;8.10;95064.00;;;;5052870;28;20627;-87
2021/12/28 09:14:46;;;;;;;7.40;6.43;;;7.80;82.30;8.10;95053.00;;;;5051604;28;20207;-85
2021/12/28 09:17:14;;;;;;;11.00;6.53;;;7.80;82.20;8.10;95059.00;;;;5052170;28;20199;-87
2021/12/28 09:19:41;;;;;;;7.27;6.53;;;7.80;82.00;8.10;95064.00;;;;5051544;28;20251;-86
2021/12/28 09:22:10;;;;;;;7.57;6.63;;;7.80;82.10;8.10;95067.00;;;;5050421;28;20196;-86
2021/12/28 09:24:37;;;;;;;8.40;7.17;;;7.80;82.40;8.10;95058.00;;;;5047022;28;20712;-86
2021/12/28 09:27:07;;;;;;;8.97;7.00;;;7.80;82.60;8.10;95050.00;;;;5051636;28;20196;-84
2021/12/28 09:29:35;;;;;;;8.63;7.27;;;7.80;82.60;8.20;95059.00;;;;5046339;28;20225;-87
2021/12/28 09:32:03;;;;;;;9.63;6.97;;;7.80;82.80;8.20;95062.00;;;;5046381;28;20197;-86
2021/12/28 09:34:31;;;;;;;10.73;7.13;;;7.80;83.00;8.20;95070.00;;;;5048714;28;20212;-84
2021/12/28 09:36:59;;;;;;;9.97;7.00;;;7.90;83.10;8.20;95065.00;;;;5022321;28;20707;-86
2021/12/28 09:39:28;;;;;;;6.80;6.10;;;7.90;83.00;8.20;95056.00;;;;5045459;28;20224;-85
2021/12/28 09:41:59;;;;;;;6.87;6.17;;;7.90;83.00;8.20;95058.00;;;;5058871;28;20230;-84
2021/12/28 09:44:30;;;;;;;7.63;5.93;;;7.90;83.80;8.30;95046.00;;;;5067423;28;20200;-84
2021/12/28 09:46:59;;;;;;;9.30;7.07;;;7.90;83.20;8.20;95040.00;;;;5064417;28;20184;-84
2021/12/28 09:49:27;;;;;;;7.70;6.47;;;7.90;83.20;8.30;95045.00;;;;5067104;28;20275;-84
2021/12/28 09:51:55;;;;;;;6.70;6.00;;;7.90;83.30;8.30;95039.00;;;;5057706;28;20207;-84
2021/12/28 09:54:24;;;;;;;7.87;6.10;;;7.90;83.70;8.40;95034.00;;;;5057350;28;20204;-85
2021/12/28 09:56:52;;;;;;;8.07;7.27;;;8.00;84.00;8.40;95036.00;;;;5067288;28;20196;-85
2021/12/28 09:59:19;;;;;;;7.40;6.57;;;8.00;84.10;8.50;95036.00;;;;5058191;28;20665;-84
2021/12/28 10:01:50;;;;;;;7.60;6.83;;;8.10;85.00;8.60;95023.00;;;;5065381;28;20197;-83
2021/12/28 10:04:18;;;;;;;7.40;6.70;;;8.10;84.30;8.60;95030.00;;;;5060611;28;20189;-86
2021/12/28 10:06:45;;;;;;;11.30;6.80;;;8.20;84.30;8.70;95034.00;;;;5062683;28;20249;-85
2021/12/28 10:09:16;;;;;;;8.90;6.60;;;8.20;84.20;8.70;95035.00;;;;5061847;28;20188;-86
2021/12/28 10:11:48;;;;;;;6.63;6.03;;;8.20;83.70;8.70;95033.00;;;;5066739;28;20228;-85
2021/12/28 10:14:20;;;;;;;7.67;6.70;;;8.30;83.50;8.70;95040.00;;;;5062909;28;20201;-86
2021/12/28 10:16:52;;;;;;;8.23;6.60;;;8.30;83.40;8.70;95034.00;;;;5065392;28;20275;-85
2021/12/28 10:19:40;;;;;;;16.80;7.80;;;8.30;83.20;8.70;95039.00;;;;5061152;28;20589;-86
2021/12/28 10:22:35;;;;;;;6.97;6.27;;;8.30;83.10;8.60;95030.00;;;;5064116;28;20194;-85
2021/12/28 10:25:09;;;;;;;7.90;6.50;;;8.30;83.10;8.60;95022.00;;;;5064544;28;20185;-85
2021/12/28 10:27:40;;;;;;;9.97;7.10;;;8.30;83.20;8.60;95015.00;;;;5067943;28;20219;-85
2021/12/28 10:30:13;;;;;;;7.13;6.40;;;8.20;83.30;8.60;95019.00;;;;5062458;28;20224;-84
2021/12/28 10:32:44;;;;;;;8.27;6.40;;;8.20;83.50;8.60;95020.00;;;;5064047;28;20254;-85
2021/12/28 10:35:14;;;;;;;9.13;7.30;;;8.20;83.60;8.60;95026.00;;;;5061298;28;20318;-85
2021/12/28 10:37:46;;;;;;;7.87;6.93;;;8.20;83.60;8.60;95036.00;;;;5061663;28;20211;-84
2021/12/28 10:40:21;;;;;;;8.27;7.07;;;8.20;83.50;8.60;95043.00;;;;5059215;28;20596;-84
2021/12/28 10:42:56;;;;;;;10.00;7.60;;;8.20;83.70;8.60;95030.00;;;;5062622;28;20188;-85
2021/12/28 10:45:26;;;;;;;10.87;7.93;;;8.20;83.60;8.50;95022.00;;;;5065188;28;20188;-84
2021/12/28 10:47:56;;;;;;;9.53;8.03;;;8.20;83.40;8.40;95016.00;;;;5061486;28;20199;-85
2021/12/28 10:50:37;;;;;;;11.60;8.87;;;8.10;83.20;8.40;95005.00;;;;5059907;28;20217;-86
2021/12/28 10:53:18;;;;;;;13.03;8.57;;;8.10;83.20;8.30;95004.00;;;;5061034;28;20196;-84
2021/12/28 10:55:48;;;;;;;13.30;9.00;;;8.00;83.50;8.30;94982.00;;;;5066333;28;20232;-86
2021/12/28 10:58:29;;;;;;;8.07;7.23;;;8.00;83.90;8.30;94972.00;;;;5065020;28;20237;-85
2021/12/28 11:01:01;;;;;;;8.60;7.43;;;8.00;84.80;8.40;94973.00;;;;5062833;28;20227;-85
2021/12/28 11:03:34;;;;;;;9.20;6.80;;;8.00;84.40;8.40;94961.00;;;;5057511;28;20204;-85
2021/12/28 11:06:22;;;;;;;8.33;7.33;;;8.00;84.50;8.40;94956.00;;;;5063268;28;20188;-85
2021/12/28 11:08:53;;;;;;;9.80;6.83;;;8.00;84.70;8.50;94954.00;;;;5056955;28;20192;-85
2021/12/28 11:11:24;;;;;;;10.07;7.33;;;8.00;84.90;8.50;94962.00;;;;5056350;28;20227;-85